createdAt,value
2024-04-15T00:02:02.441Z,18.03
2024-04-15T00:04:29.399Z,18.10
2024-04-15T00:06:56.364Z,18.20
2024-04-15T00:09:23.502Z,18.16
2024-04-15T00:11:50.504Z,18.04
2024-04-15T00:14:17.488Z,17.90
2024-04-15T00:16:44.657Z,18.02
2024-04-15T00:19:11.754Z,17.92
2024-04-15T00:21:38.844Z,17.63
2024-04-15T00:24:07.068Z,17.48
2024-04-15T00:26:34.074Z,17.25
2024-04-15T00:29:01.100Z,17.15
2024-04-15T00:31:28.048Z,17.41
2024-04-15T00:33:56.073Z,17.47
2024-04-15T00:36:23.152Z,17.42
2024-04-15T00:38:50.134Z,17.23
2024-04-15T00:41:17.120Z,17.33
2024-04-15T00:43:44.167Z,17.25
2024-04-15T00:46:11.348Z,17.43
2024-04-15T00:48:38.845Z,17.76
2024-04-15T00:51:06.025Z,17.58
2024-04-15T00:53:33.038Z,17.66
2024-04-15T00:56:01.691Z,17.72
2024-04-15T00:58:29.008Z,17.57
2024-04-15T01:00:58.504Z,17.68
2024-04-15T01:03:26.883Z,17.58
2024-04-15T01:05:54.735Z,17.62
2024-04-15T01:08:21.913Z,17.43
2024-04-15T01:10:58.190Z,17.53
2024-04-15T01:13:27.988Z,17.44
2024-04-15T01:16:01.446Z,17.57
2024-04-15T01:18:30.412Z,17.59
2024-04-15T01:20:59.494Z,17.38
2024-04-15T01:23:32.090Z,17.30
2024-04-15T01:25:59.073Z,17.15
2024-04-15T01:28:26.894Z,17.50
2024-04-15T01:30:53.971Z,17.49
2024-04-15T01:33:21.016Z,17.59
2024-04-15T01:35:48.033Z,17.56
2024-04-15T01:38:16.090Z,17.50
2024-04-15T01:40:43.069Z,17.56
2024-04-15T01:43:10.126Z,17.46
2024-04-15T01:45:37.196Z,17.23
2024-04-15T01:48:04.647Z,17.27
2024-04-15T01:50:31.758Z,17.21
2024-04-15T01:52:58.825Z,17.18
2024-04-15T01:55:25.781Z,17.12
2024-04-15T01:57:52.745Z,16.76
2024-04-15T02:00:19.852Z,16.57
2024-04-15T02:02:46.934Z,16.62
2024-04-15T02:05:13.991Z,16.67
2024-04-15T02:07:40.989Z,16.32
2024-04-15T02:10:08.302Z,16.64
2024-04-15T02:12:35.431Z,16.74
2024-04-15T02:15:04.099Z,16.54
2024-04-15T02:17:31.241Z,16.47
2024-04-15T02:19:58.413Z,16.49
2024-04-15T02:22:25.547Z,16.28
2024-04-15T02:24:52.868Z,16.21
2024-04-15T02:27:19.901Z,16.28
2024-04-15T02:29:46.898Z,16.40
2024-04-15T02:32:14.032Z,16.29
2024-04-15T02:34:43.092Z,16.16
2024-04-15T02:37:10.138Z,16.36
2024-04-15T02:39:37.148Z,16.54
2024-04-15T02:42:04.230Z,16.52
2024-04-15T02:44:31.393Z,16.56
2024-04-15T02:46:58.477Z,16.35
2024-04-15T02:49:25.461Z,16.24
2024-04-15T02:51:53.673Z,15.91
2024-04-15T02:54:20.702Z,15.74
2024-04-15T02:56:47.715Z,15.62
2024-04-15T02:59:14.787Z,15.47
2024-04-15T03:01:41.860Z,15.42
2024-04-15T03:04:09.192Z,15.36
2024-04-15T03:06:36.309Z,15.21
2024-04-15T03:09:03.395Z,15.37
2024-04-15T03:11:30.591Z,15.74
2024-04-15T03:13:57.773Z,15.69
2024-04-15T03:16:27.794Z,15.57
2024-04-15T03:18:55.792Z,15.48
2024-04-15T03:21:23.057Z,15.61
2024-04-15T03:23:50.209Z,15.38
2024-04-15T03:26:17.246Z,15.14
2024-04-15T03:28:44.351Z,15.34
2024-04-15T03:31:11.446Z,15.41
2024-04-15T03:33:41.781Z,15.64
2024-04-15T03:36:09.484Z,15.85
2024-04-15T03:38:36.734Z,15.81
2024-04-15T03:41:03.899Z,15.99
2024-04-15T03:43:30.886Z,16.00
2024-04-15T03:45:57.925Z,15.81
2024-04-15T03:48:24.949Z,15.63
2024-04-15T03:50:51.915Z,15.77
2024-04-15T03:53:18.993Z,15.76
2024-04-15T03:55:56.236Z,15.66
2024-04-15T03:58:23.377Z,15.45
2024-04-15T04:00:50.962Z,15.29
2024-04-15T04:03:18.734Z,15.59
2024-04-15T04:06:05.717Z,15.89
2024-04-15T04:08:39.473Z,15.95
2024-04-15T04:11:07.693Z,15.96
2024-04-15T04:13:36.618Z,16.00
2024-04-15T04:16:04.954Z,16.28
2024-04-15T04:18:32.272Z,16.42
2024-04-15T04:20:59.341Z,16.45
2024-04-15T04:23:26.410Z,16.53
2024-04-15T04:25:53.449Z,16.56
2024-04-15T04:28:20.606Z,16.17
2024-04-15T04:30:47.803Z,16.10
2024-04-15T04:33:14.949Z,16.18
2024-04-15T04:35:42.075Z,16.28
2024-04-15T04:38:09.044Z,16.37
2024-04-15T04:40:36.891Z,16.62
2024-04-15T04:43:04.225Z,16.78
2024-04-15T04:45:31.270Z,16.81
2024-04-15T04:47:58.293Z,16.89
2024-04-15T04:50:25.399Z,16.79
2024-04-15T04:52:52.472Z,16.87
2024-04-15T04:55:19.592Z,16.89
2024-04-15T04:57:46.757Z,17.02
2024-04-15T05:00:14.379Z,17.24
2024-04-15T05:02:41.767Z,17.32
2024-04-15T05:05:08.731Z,17.38
2024-04-15T05:07:35.704Z,17.42
2024-04-15T05:10:02.714Z,17.54
2024-04-15T05:12:29.737Z,17.61
2024-04-15T05:14:56.730Z,17.86
2024-04-15T05:17:23.792Z,18.03
2024-04-15T05:19:50.825Z,18.09
2024-04-15T05:22:17.895Z,18.13
2024-04-15T05:24:44.979Z,18.02
2024-04-15T05:27:12.044Z,18.07
2024-04-15T05:29:39.019Z,18.33
2024-04-15T05:32:06.327Z,18.54
2024-04-15T05:34:34.785Z,18.32
2024-04-15T05:37:01.880Z,18.49
2024-04-15T05:39:28.891Z,18.62
2024-04-15T05:41:55.871Z,18.87
2024-04-15T05:44:22.899Z,18.78
2024-04-15T05:46:50.984Z,18.95
2024-04-15T05:49:20.193Z,19.28
2024-04-15T05:51:47.738Z,19.53
2024-04-15T05:54:14.798Z,19.66
2024-04-15T05:56:41.850Z,19.49
2024-04-15T05:59:08.837Z,19.71
2024-04-15T06:01:35.933Z,19.81
2024-04-15T06:04:03.069Z,19.78
2024-04-15T06:06:30.206Z,19.61
2024-04-15T06:08:57.266Z,19.59
2024-04-15T06:11:24.284Z,19.99
2024-04-15T06:13:51.317Z,20.18
2024-04-15T06:16:18.312Z,20.21
2024-04-15T06:18:45.423Z,20.23
2024-04-15T06:21:12.857Z,19.84
2024-04-15T06:23:40.196Z,20.01
2024-04-15T06:26:07.253Z,20.02
2024-04-15T06:28:34.263Z,20.16
2024-04-15T06:31:01.427Z,20.28
2024-04-15T06:33:28.555Z,20.40
2024-04-15T06:35:55.879Z,20.53
2024-04-15T06:38:22.944Z,20.37
2024-04-15T06:40:50.044Z,20.59
2024-04-15T06:43:17.018Z,21.02
2024-04-15T06:45:44.081Z,21.15
2024-04-15T06:48:11.258Z,21.05
2024-04-15T06:50:38.947Z,21.29
2024-04-15T06:53:06.022Z,21.52
2024-04-15T06:55:33.070Z,21.60
2024-04-15T06:58:00.112Z,21.73
2024-04-15T07:00:27.163Z,21.76
2024-04-15T07:02:54.252Z,22.02
2024-04-15T07:05:22.027Z,21.87
2024-04-15T07:07:49.031Z,22.01
2024-04-15T07:10:16.279Z,22.32
2024-04-15T07:12:43.443Z,22.78
2024-04-15T07:15:10.496Z,22.74
2024-04-15T07:17:40.309Z,22.76
2024-04-15T07:20:08.810Z,22.92
2024-04-15T07:22:35.910Z,23.12
2024-04-15T07:25:06.154Z,23.33
2024-04-15T07:27:34.513Z,23.41
2024-04-15T07:30:02.197Z,23.34
2024-04-15T07:32:29.391Z,23.67
2024-04-15T07:34:56.486Z,23.62
2024-04-15T07:37:23.505Z,23.75
2024-04-15T07:39:51.411Z,23.88
2024-04-15T07:42:28.128Z,24.04
2024-04-15T07:44:59.469Z,23.98
2024-04-15T07:47:26.654Z,24.15
2024-04-15T07:49:53.806Z,24.18
2024-04-15T07:52:21.006Z,23.99
2024-04-15T07:54:48.434Z,24.16
2024-04-15T07:57:15.452Z,23.99
2024-04-15T07:59:42.670Z,23.96
2024-04-15T08:02:15.314Z,24.42
2024-04-15T08:04:43.553Z,24.70
2024-04-15T08:07:14.670Z,24.76
2024-04-15T08:09:42.871Z,24.74
2024-04-15T08:12:09.888Z,24.79
2024-04-15T08:14:36.968Z,25.07
2024-04-15T08:17:04.343Z,24.79
2024-04-15T08:19:32.407Z,24.90
2024-04-15T08:21:59.738Z,25.43
2024-04-15T08:24:26.827Z,25.38
2024-04-15T08:26:53.877Z,25.46
2024-04-15T08:29:20.920Z,25.52
2024-04-15T08:31:47.896Z,25.26
2024-04-15T08:34:14.946Z,25.40
2024-04-15T08:36:42.042Z,25.74
2024-04-15T08:39:09.901Z,25.80
2024-04-15T08:42:04.130Z,25.94
2024-04-15T08:44:34.806Z,25.78
2024-04-15T08:47:11.366Z,25.87
2024-04-15T08:49:40.781Z,25.90
2024-04-15T08:52:08.539Z,26.20
2024-04-15T08:54:35.693Z,26.93
2024-04-15T08:57:03.886Z,26.88
2024-04-15T08:59:36.722Z,26.70
2024-04-15T09:02:07.605Z,26.85
2024-04-15T09:04:35.508Z,26.64
2024-04-15T09:07:02.753Z,26.84
2024-04-15T09:09:30.063Z,27.33
2024-04-15T09:11:57.173Z,27.45
2024-04-15T09:14:24.690Z,27.01
2024-04-15T09:16:55.711Z,27.54
2024-04-15T09:19:27.898Z,27.61
2024-04-15T09:22:01.967Z,27.63
2024-04-15T09:24:29.679Z,27.54
2024-04-15T09:26:56.814Z,27.75
2024-04-15T09:29:23.909Z,28.02
2024-04-15T09:31:50.959Z,28.22
2024-04-15T09:34:18.113Z,28.13
2024-04-15T09:36:58.593Z,28.28
2024-04-15T09:39:26.685Z,28.19
2024-04-15T09:41:56.112Z,28.56
2024-04-15T09:44:25.047Z,28.62
2024-04-15T09:46:53.426Z,28.46
2024-04-15T09:49:22.669Z,28.16
2024-04-15T09:51:53.276Z,28.57
2024-04-15T09:54:31.938Z,28.65
2024-04-15T09:57:20.271Z,28.57
2024-04-15T09:59:56.115Z,28.90
2024-04-15T10:02:29.357Z,28.85
2024-04-15T10:05:03.553Z,28.70
2024-04-15T10:07:31.276Z,28.95
2024-04-15T10:09:59.956Z,28.82
2024-04-15T10:12:27.269Z,28.75
2024-04-15T10:14:54.819Z,29.13
2024-04-15T10:17:27.054Z,29.35
2024-04-15T10:19:54.193Z,29.03
2024-04-15T10:22:24.799Z,29.23
2024-04-15T10:24:52.826Z,29.15
2024-04-15T10:27:20.000Z,29.33
2024-04-15T10:29:51.261Z,29.28
2024-04-15T10:32:18.289Z,29.57
2024-04-15T10:34:49.703Z,29.39
2024-04-15T10:37:16.776Z,29.38
2024-04-15T10:39:47.565Z,29.71
2024-04-15T10:42:15.970Z,29.89
2024-04-15T10:44:42.968Z,29.64
2024-04-15T10:47:10.053Z,29.63
2024-04-15T10:49:37.104Z,29.67
2024-04-15T10:52:05.097Z,29.57
2024-04-15T10:54:33.074Z,29.74
2024-04-15T10:57:01.409Z,29.82
2024-04-15T10:59:28.529Z,30.25
2024-04-15T11:01:55.732Z,30.35
2024-04-15T11:04:23.240Z,30.62
2024-04-15T11:06:50.289Z,30.61
2024-04-15T11:09:17.351Z,30.73
2024-04-15T11:11:44.404Z,30.44
2024-04-15T11:14:13.352Z,30.83
2024-04-15T11:16:48.617Z,30.71
2024-04-15T11:19:17.716Z,30.46
2024-04-15T11:21:44.946Z,30.40
2024-04-15T11:24:12.185Z,30.70
2024-04-15T11:26:41.212Z,31.25
2024-04-15T11:29:09.853Z,31.23
2024-04-15T11:31:37.908Z,31.31
2024-04-15T11:34:05.296Z,31.35
2024-04-15T11:36:32.551Z,31.26
2024-04-15T11:38:59.875Z,31.33
2024-04-15T11:41:27.953Z,31.43
2024-04-15T11:43:55.159Z,31.39
2024-04-15T11:46:22.562Z,31.34
2024-04-15T11:48:50.836Z,31.66
2024-04-15T11:51:18.515Z,31.48
2024-04-15T11:53:48.406Z,31.15
2024-04-15T11:56:15.952Z,31.25
2024-04-15T11:58:43.105Z,31.27
2024-04-15T12:01:10.432Z,31.63
2024-04-15T12:03:37.759Z,31.76
2024-04-15T12:06:06.853Z,31.86
2024-04-15T12:08:37.370Z,31.81
2024-04-15T12:11:14.479Z,31.84
2024-04-15T12:13:42.070Z,31.45
2024-04-15T12:16:10.461Z,32.04
2024-04-15T12:18:37.691Z,31.80
2024-04-15T12:21:05.025Z,31.74
2024-04-15T12:23:32.544Z,31.88
2024-04-15T12:26:00.689Z,32.17
2024-04-15T12:28:27.894Z,31.93
2024-04-15T12:30:55.113Z,32.04
2024-04-15T12:33:22.205Z,31.98
2024-04-15T12:35:50.551Z,31.81
2024-04-15T12:38:17.978Z,31.99
2024-04-15T12:40:45.085Z,32.19
2024-04-15T12:43:12.136Z,31.85
2024-04-15T12:45:39.146Z,32.11
2024-04-15T12:48:16.077Z,31.99
2024-04-15T12:50:49.264Z,31.95
2024-04-15T12:53:16.333Z,32.17
2024-04-15T12:55:47.388Z,32.16
2024-04-15T12:58:14.759Z,32.02
2024-04-15T13:00:41.970Z,32.15
2024-04-15T13:03:09.398Z,32.25
2024-04-15T13:05:39.276Z,32.13
2024-04-15T13:08:06.686Z,32.15
2024-04-15T13:10:34.066Z,32.33
2024-04-15T13:13:01.201Z,32.47
2024-04-15T13:15:28.235Z,32.69
2024-04-15T13:17:56.775Z,32.40
2024-04-15T13:20:24.058Z,32.47
2024-04-15T13:22:51.110Z,32.63
2024-04-15T13:25:18.114Z,32.41
2024-04-15T13:27:45.208Z,32.17
2024-04-15T13:30:12.333Z,32.50
2024-04-15T13:32:39.954Z,32.64
2024-04-15T13:35:07.518Z,32.71
2024-04-15T13:37:34.984Z,32.67
2024-04-15T13:40:02.221Z,32.58
2024-04-15T13:42:29.399Z,31.90
2024-04-15T13:44:58.045Z,32.28
2024-04-15T13:47:25.334Z,32.45
2024-04-15T13:49:52.347Z,32.50
2024-04-15T13:52:19.395Z,32.53
2024-04-15T13:54:46.747Z,32.58
2024-04-15T13:57:13.863Z,32.60
2024-04-15T13:59:41.036Z,32.71
2024-04-15T14:02:09.791Z,32.22
2024-04-15T14:04:38.180Z,31.85
2024-04-15T14:07:05.923Z,32.18
2024-04-15T14:09:33.505Z,32.50
2024-04-15T14:12:01.188Z,32.34
2024-04-15T14:14:29.204Z,32.39
2024-04-15T14:16:56.934Z,32.54
2024-04-15T14:19:25.333Z,32.03
2024-04-15T14:21:52.876Z,32.56
2024-04-15T14:24:19.848Z,32.53
2024-04-15T14:26:46.924Z,32.38
2024-04-15T14:29:13.950Z,32.74
2024-04-15T14:31:40.914Z,32.27
2024-04-15T14:34:08.128Z,32.02
2024-04-15T14:36:35.148Z,31.71
2024-04-15T14:39:02.189Z,31.64
2024-04-15T14:41:29.390Z,31.58
2024-04-15T14:43:58.202Z,31.41
2024-04-15T14:46:28.831Z,31.57
2024-04-15T14:48:56.081Z,31.68
2024-04-15T14:51:23.157Z,31.69
2024-04-15T14:53:50.464Z,31.72
2024-04-15T14:56:18.968Z,31.77
2024-04-15T14:58:46.155Z,31.76
2024-04-15T15:01:13.214Z,32.20
2024-04-15T15:03:40.296Z,32.24
2024-04-15T15:06:10.612Z,32.20
2024-04-15T15:08:38.947Z,32.12
2024-04-15T15:11:11.489Z,31.79
2024-04-15T15:13:39.880Z,31.58
2024-04-15T15:16:08.932Z,31.16
2024-04-15T15:18:36.301Z,30.98
2024-04-15T15:21:11.354Z,31.02
2024-04-15T15:23:47.749Z,31.02
2024-04-15T15:26:14.775Z,30.83
2024-04-15T15:28:41.821Z,30.70
2024-04-15T15:31:08.854Z,30.84
2024-04-15T15:33:35.980Z,30.83
2024-04-15T15:36:03.088Z,30.88
2024-04-15T15:38:30.124Z,30.65
2024-04-15T15:40:57.130Z,30.29
2024-04-15T15:43:24.173Z,30.09
2024-04-15T15:45:53.408Z,30.08
2024-04-15T15:48:22.331Z,29.91
2024-04-15T15:50:49.366Z,29.86
2024-04-15T15:53:16.355Z,29.84
2024-04-15T15:55:43.534Z,29.79
2024-04-15T15:58:10.599Z,29.96
2024-04-15T16:00:39.462Z,30.03
2024-04-15T16:03:06.558Z,29.86
2024-04-15T16:05:33.627Z,29.65
2024-04-15T16:08:04.374Z,29.49
2024-04-15T16:10:34.740Z,29.54
2024-04-15T16:13:01.956Z,29.64
2024-04-15T16:15:29.628Z,29.28
2024-04-15T16:17:56.753Z,29.36
2024-04-15T16:20:23.794Z,29.14
2024-04-15T16:22:50.815Z,29.04
2024-04-15T16:25:17.981Z,28.85
2024-04-15T16:27:45.751Z,28.71
2024-04-15T16:30:13.263Z,28.71
2024-04-15T16:32:40.947Z,28.60
2024-04-15T16:35:09.705Z,28.36
2024-04-15T16:37:37.470Z,28.46
2024-04-15T16:40:05.967Z,28.31
2024-04-15T16:42:33.149Z,27.99
2024-04-15T16:45:00.271Z,27.97
2024-04-15T16:47:29.065Z,27.90
2024-04-15T16:50:00.035Z,27.81
2024-04-15T16:52:27.140Z,27.73
2024-04-15T16:54:54.237Z,27.71
2024-04-15T16:57:21.320Z,27.64
2024-04-15T16:59:48.330Z,27.38
2024-04-15T17:02:15.312Z,27.46
2024-04-15T17:04:42.479Z,27.33
2024-04-15T17:07:09.689Z,27.38
2024-04-15T17:09:36.748Z,27.52
2024-04-15T17:12:03.984Z,27.32
2024-04-15T17:14:31.057Z,27.28
2024-04-15T17:16:58.947Z,27.28
2024-04-15T17:19:26.197Z,27.27
2024-04-15T17:21:53.314Z,27.15
2024-04-15T17:24:20.347Z,27.13
2024-04-15T17:26:47.375Z,27.09
2024-04-15T17:29:14.546Z,27.15
2024-04-15T17:31:41.667Z,27.03
2024-04-15T17:34:08.712Z,26.92
2024-04-15T17:36:35.931Z,26.81
2024-04-15T17:39:04.379Z,26.72
2024-04-15T17:41:31.399Z,26.75
2024-04-15T17:43:58.436Z,26.61
2024-04-15T17:46:26.753Z,26.61
2024-04-15T17:48:57.588Z,26.38
2024-04-15T17:51:24.632Z,26.10
2024-04-15T17:53:51.676Z,26.12
2024-04-15T17:56:19.571Z,25.99
2024-04-15T17:58:48.174Z,25.90
2024-04-15T18:01:15.928Z,25.99
2024-04-15T18:03:43.131Z,25.98
2024-04-15T18:06:11.250Z,25.85
2024-04-15T18:08:38.466Z,25.70
2024-04-15T18:11:05.534Z,25.78
2024-04-15T18:13:32.746Z,25.75
2024-04-15T18:15:59.941Z,25.63
2024-04-15T18:18:29.735Z,25.66
2024-04-15T18:20:59.111Z,25.60
2024-04-15T18:23:26.922Z,25.41
2024-04-15T18:25:54.386Z,25.27
2024-04-15T18:28:21.549Z,25.30
2024-04-15T18:30:49.117Z,25.52
2024-04-15T18:33:16.232Z,25.38
2024-04-15T18:35:43.453Z,25.30
2024-04-15T18:38:10.597Z,25.21
2024-04-15T18:40:40.592Z,25.16
2024-04-15T18:43:07.779Z,24.85
2024-04-15T18:45:35.065Z,24.83
2024-04-15T18:48:03.240Z,24.82
2024-04-15T18:50:33.500Z,24.75
2024-04-15T18:53:01.549Z,24.53
2024-04-15T18:55:29.225Z,24.30
2024-04-15T18:57:56.581Z,24.38
2024-04-15T19:00:23.778Z,24.54
2024-04-15T19:02:50.882Z,24.73
2024-04-15T19:05:19.179Z,24.63
2024-04-15T19:07:46.301Z,24.66
2024-04-15T19:10:13.372Z,24.54
2024-04-15T19:12:40.442Z,24.68
2024-04-15T19:15:13.381Z,24.71
2024-04-15T19:17:44.595Z,24.59
2024-04-15T19:20:11.852Z,24.20
2024-04-15T19:22:39.058Z,24.27
2024-04-15T19:25:07.470Z,24.24
2024-04-15T19:27:35.622Z,24.05
2024-04-15T19:30:02.894Z,24.09
2024-04-15T19:32:32.503Z,24.00
2024-04-15T19:35:02.070Z,24.00
2024-04-15T19:37:29.278Z,24.00
2024-04-15T19:39:56.495Z,23.91
2024-04-15T19:42:23.555Z,23.83
2024-04-15T19:44:50.614Z,23.50
2024-04-15T19:47:17.672Z,23.59
2024-04-15T19:49:44.882Z,23.44
2024-04-15T19:52:11.937Z,23.45
2024-04-15T19:54:39.044Z,23.00
2024-04-15T19:57:06.555Z,22.42
2024-04-15T19:59:33.673Z,22.39
2024-04-15T20:02:00.765Z,22.57
2024-04-15T20:04:28.067Z,22.75
2024-04-15T20:06:55.189Z,22.95
2024-04-15T20:09:22.219Z,22.81
2024-04-15T20:11:49.222Z,22.74
2024-04-15T20:14:16.255Z,22.85
2024-04-15T20:16:43.402Z,22.71
2024-04-15T20:19:11.230Z,22.63
2024-04-15T20:21:38.294Z,22.38
2024-04-15T20:24:05.522Z,22.09
2024-04-15T20:26:32.887Z,22.12
2024-04-15T20:28:59.975Z,22.21
2024-04-15T20:31:27.008Z,22.07
2024-04-15T20:33:54.215Z,22.19
2024-04-15T20:36:21.443Z,22.33
2024-04-15T20:38:48.688Z,22.28
2024-04-15T20:41:15.697Z,22.14
2024-04-15T20:43:43.664Z,22.06
2024-04-15T20:46:11.910Z,22.06
2024-04-15T20:48:39.010Z,22.04
2024-04-15T20:51:06.050Z,22.05
2024-04-15T20:53:33.171Z,22.03
2024-04-15T20:56:00.269Z,22.18
2024-04-15T20:58:27.394Z,21.95
2024-04-15T21:00:56.262Z,22.11
2024-04-15T21:03:23.690Z,22.08
2024-04-15T21:05:51.414Z,21.95
2024-04-15T21:08:18.429Z,22.11
2024-04-15T21:10:45.470Z,22.13
2024-04-15T21:13:12.559Z,21.94
2024-04-15T21:15:39.613Z,21.86
2024-04-15T21:18:06.704Z,21.76
2024-04-15T21:20:33.772Z,21.36
2024-04-15T21:23:00.824Z,21.39
2024-04-15T21:25:27.958Z,21.45
2024-04-15T21:27:57.002Z,21.62
2024-04-15T21:30:24.208Z,21.53
2024-04-15T21:32:51.364Z,21.19
2024-04-15T21:35:21.151Z,20.83
2024-04-15T21:37:48.186Z,20.86
2024-04-15T21:40:15.279Z,20.84
2024-04-15T21:42:42.420Z,20.84
2024-04-15T21:45:09.412Z,20.80
2024-04-15T21:47:36.523Z,20.37
2024-04-15T21:50:03.804Z,20.08
2024-04-15T21:52:31.660Z,19.98
2024-04-15T21:54:59.963Z,20.18
2024-04-15T21:57:27.007Z,19.54
2024-04-15T21:59:54.107Z,19.74
2024-04-15T22:02:21.137Z,19.24
2024-04-15T22:04:58.945Z,19.74
2024-04-15T22:07:28.577Z,19.54
2024-04-15T22:09:55.817Z,19.55
2024-04-15T22:12:23.109Z,19.98
2024-04-15T22:14:50.284Z,20.00
2024-04-15T22:17:17.444Z,20.08
2024-04-15T22:19:44.624Z,20.10
2024-04-15T22:22:11.839Z,20.07
2024-04-15T22:24:38.885Z,20.24
2024-04-15T22:27:06.141Z,20.14
2024-04-15T22:29:33.191Z,20.17
2024-04-15T22:32:00.295Z,20.14
2024-04-15T22:34:27.421Z,19.97
2024-04-15T22:36:55.912Z,19.95
2024-04-15T22:39:24.183Z,20.03
2024-04-15T22:41:51.313Z,19.85
2024-04-15T22:44:18.332Z,19.73
2024-04-15T22:46:45.361Z,19.88
2024-04-15T22:49:12.408Z,19.72
2024-04-15T22:51:39.501Z,19.49
2024-04-15T22:54:06.621Z,19.53
2024-04-15T22:56:33.699Z,19.69
2024-04-15T22:59:00.756Z,19.57
2024-04-15T23:01:28.967Z,19.57
2024-04-15T23:03:56.169Z,19.51
2024-04-15T23:06:23.349Z,19.52
2024-04-15T23:08:50.552Z,19.16
2024-04-15T23:11:17.684Z,19.01
2024-04-15T23:13:44.715Z,19.18
2024-04-15T23:16:11.923Z,19.12
2024-04-15T23:18:40.611Z,19.04
2024-04-15T23:21:07.715Z,18.97
2024-04-15T23:23:34.752Z,19.09
2024-04-15T23:26:01.766Z,18.81
2024-04-15T23:28:28.824Z,18.98
2024-04-15T23:30:59.747Z,18.85
2024-04-15T23:33:28.559Z,18.98
2024-04-15T23:35:55.699Z,19.02
2024-04-15T23:38:23.017Z,19.08
2024-04-15T23:40:50.152Z,19.13
2024-04-15T23:43:17.486Z,19.01
2024-04-15T23:46:02.939Z,18.28
2024-04-15T23:48:48.500Z,18.30
2024-04-15T23:51:34.125Z,18.19
2024-04-15T23:54:19.583Z,18.29
2024-04-15T23:57:05.424Z,18.33
2024-04-15T23:59:32.428Z,18.61
